Time;durP1;ratioP1;P1;durP2;ratioP2;P2;SDS_P1;SDS_P2;PMS_P1;PMS_P2;Temp;Humidity;BMP_temperature;BMP_pressure;BME280_temperature;BME280_humidity;BME280_pressure;Samples;Min_cycle;Max_cycle;Signal;HPM_P1;HPM_P2
2021/04/25 00:02:25;;;;;;;1.05;0.22;;;22.60;35.00;;;;;;5046085;28;20021;-50
2021/04/25 00:04:51;;;;;;;1.05;0.40;;;22.60;34.90;;;;;;5041780;28;20048;-49
2021/04/25 00:07:16;;;;;;;1.42;0.40;;;22.60;35.00;;;;;;5042556;28;20108;-50
2021/04/25 00:09:42;;;;;;;1.27;0.20;;;22.60;34.90;;;;;;5049122;28;20025;-49
2021/04/25 00:12:08;;;;;;;0.90;0.20;;;22.60;35.00;;;;;;5041625;28;20025;-50
2021/04/25 00:14:34;;;;;;;1.48;0.30;;;22.60;35.00;;;;;;5044310;28;20048;-48
2021/04/25 00:17:00;;;;;;;0.70;0.35;;;22.60;35.00;;;;;;5047481;28;20029;-50
2021/04/25 00:19:26;;;;;;;1.38;0.63;;;22.60;35.00;;;;;;5049343;28;20024;-49
2021/04/25 00:21:52;;;;;;;1.05;0.30;;;22.60;35.00;;;;;;5037618;28;20033;-49
2021/04/25 00:24:17;;;;;;;1.20;0.30;;;22.50;35.00;;;;;;5040628;28;20051;-46
2021/04/25 00:26:43;;;;;;;1.95;0.40;;;22.50;34.90;;;;;;5047482;28;20029;-47
2021/04/25 00:29:09;;;;;;;3.42;0.30;;;22.50;34.90;;;;;;5048555;28;20032;-48
2021/04/25 00:31:34;;;;;;;0.95;0.52;;;22.50;34.90;;;;;;5048545;28;20599;-49
2021/04/25 00:34:00;;;;;;;1.75;0.30;;;22.50;34.90;;;;;;5048633;28;20035;-49
2021/04/25 00:36:26;;;;;;;1.35;0.20;;;22.50;34.90;;;;;;5042663;28;20112;-49
2021/04/25 00:38:53;;;;;;;2.35;0.35;;;22.50;34.90;;;;;;5036870;28;20116;-49
2021/04/25 00:41:19;;;;;;;2.60;0.40;;;22.50;34.90;;;;;;5048800;28;20513;-48
2021/04/25 00:43:45;;;;;;;0.88;0.40;;;22.50;35.00;;;;;;5037928;28;20096;-47
2021/04/25 00:46:11;;;;;;;1.00;0.30;;;22.50;34.90;;;;;;5047169;28;20108;-49
2021/04/25 00:48:37;;;;;;;0.63;0.20;;;22.50;34.90;;;;;;5050049;28;20029;-48
2021/04/25 00:51:04;;;;;;;0.75;0.30;;;22.50;34.90;;;;;;5053256;28;20040;-46
2021/04/25 00:53:30;;;;;;;1.38;0.30;;;22.50;34.90;;;;;;5045638;28;20026;-50
2021/04/25 00:55:56;;;;;;;0.75;0.40;;;22.50;34.90;;;;;;5039285;28;20060;-48
2021/04/25 00:58:23;;;;;;;1.25;0.20;;;22.40;34.90;;;;;;5051699;28;20086;-49
2021/04/25 01:00:48;;;;;;;1.42;0.50;;;22.40;34.90;;;;;;5052422;28;20042;-50
2021/04/25 01:03:18;;;;;;;5.43;0.68;;;22.40;34.90;;;;;;5048129;28;20638;-47
2021/04/25 01:05:44;;;;;;;1.40;0.40;;;22.40;34.90;;;;;;5046209;28;20027;-50
2021/04/25 01:08:10;;;;;;;1.23;0.50;;;22.40;34.90;;;;;;5048589;28;20025;-46
2021/04/25 01:10:35;;;;;;;1.15;0.45;;;22.40;34.90;;;;;;5052692;28;20032;-49
2021/04/25 01:13:01;;;;;;;0.90;0.30;;;22.40;34.90;;;;;;5045068;28;20126;-48
2021/04/25 01:15:27;;;;;;;1.55;0.40;;;22.40;34.90;;;;;;5051611;28;20478;-47
2021/04/25 01:17:53;;;;;;;1.90;0.50;;;22.40;34.90;;;;;;5050988;28;20414;-47
2021/04/25 01:20:20;;;;;;;2.17;0.35;;;22.40;34.90;;;;;;5047135;28;20029;-49
2021/04/25 01:22:47;;;;;;;0.98;0.50;;;22.40;34.90;;;;;;5052809;28;20044;-50
2021/04/25 01:25:15;;;;;;;0.85;0.32;;;22.40;34.90;;;;;;5049871;28;20094;-51
2021/04/25 01:27:41;;;;;;;1.55;0.45;;;22.40;35.10;;;;;;5045609;28;20029;-47
2021/04/25 01:30:09;;;;;;;2.05;0.40;;;22.40;34.90;;;;;;5046832;28;20086;-51
2021/04/25 01:32:40;;;;;;;1.60;0.55;;;22.40;34.90;;;;;;5050377;28;20108;-49
2021/04/25 01:35:06;;;;;;;1.85;0.55;;;22.40;34.90;;;;;;5051176;28;20096;-49
2021/04/25 01:37:32;;;;;;;0.63;0.30;;;22.40;34.90;;;;;;5044279;28;20049;-49
2021/04/25 01:39:58;;;;;;;1.17;0.47;;;22.30;34.90;;;;;;5050971;28;20052;-51
2021/04/25 01:42:23;;;;;;;1.45;0.70;;;22.30;34.90;;;;;;5044984;28;20490;-49
2021/04/25 01:44:49;;;;;;;1.90;0.50;;;22.30;34.80;;;;;;5050736;28;20029;-49
2021/04/25 01:47:14;;;;;;;1.67;0.63;;;22.30;34.90;;;;;;5050833;28;20047;-48
2021/04/25 01:49:40;;;;;;;1.45;0.30;;;22.30;34.90;;;;;;5051129;28;20541;-48
2021/04/25 01:52:06;;;;;;;2.42;0.60;;;22.30;34.90;;;;;;5050000;28;20616;-49
2021/04/25 01:54:31;;;;;;;1.65;0.50;;;22.30;34.90;;;;;;5050195;28;20405;-48
2021/04/25 01:56:57;;;;;;;1.05;0.40;;;22.30;34.90;;;;;;5050550;28;20064;-48
2021/04/25 01:59:23;;;;;;;0.77;0.38;;;22.30;34.90;;;;;;5050673;28;20036;-49
2021/04/25 02:01:48;;;;;;;2.45;0.50;;;22.30;34.90;;;;;;5051417;28;20033;-48
2021/04/25 02:04:14;;;;;;;0.73;0.50;;;22.30;34.90;;;;;;5040796;28;20112;-50
2021/04/25 02:06:42;;;;;;;1.98;0.63;;;22.20;34.80;;;;;;5048870;28;20478;-50
2021/04/25 02:09:09;;;;;;;1.92;0.60;;;22.30;34.90;;;;;;5042768;28;20032;-46
2021/04/25 02:11:34;;;;;;;1.77;0.40;;;22.30;34.90;;;;;;5046523;28;20560;-49
2021/04/25 02:14:05;;;;;;;1.58;0.80;;;22.30;34.90;;;;;;5043134;28;20032;-50
2021/04/25 02:16:31;;;;;;;1.15;0.47;;;22.20;34.80;;;;;;5044250;28;20068;-48
2021/04/25 02:18:56;;;;;;;1.00;0.50;;;22.20;34.80;;;;;;5039547;28;20502;-47
2021/04/25 02:21:22;;;;;;;1.90;0.47;;;22.20;34.80;;;;;;5040214;28;20030;-50
2021/04/25 02:23:48;;;;;;;2.47;0.57;;;22.20;34.80;;;;;;5049647;28;20082;-49
2021/04/25 02:26:13;;;;;;;1.52;0.50;;;22.20;34.80;;;;;;5049656;28;20165;-49
2021/04/25 02:28:39;;;;;;;1.25;0.55;;;22.20;34.80;;;;;;5050972;28;20021;-48
2021/04/25 02:31:04;;;;;;;3.08;0.70;;;22.20;34.80;;;;;;5049439;28;20028;-48
2021/04/25 02:33:30;;;;;;;1.33;0.52;;;22.20;34.80;;;;;;5051185;28;20025;-49
2021/04/25 02:35:55;;;;;;;1.67;0.70;;;22.20;34.80;;;;;;5047721;28;20147;-52
2021/04/25 02:38:21;;;;;;;2.17;0.70;;;22.20;34.80;;;;;;5047928;28;20025;-49
2021/04/25 02:40:47;;;;;;;2.05;0.70;;;22.20;34.80;;;;;;5042298;28;20025;-47
2021/04/25 02:43:12;;;;;;;1.65;0.55;;;22.20;34.80;;;;;;5049283;28;20032;-47
2021/04/25 02:45:38;;;;;;;1.50;0.63;;;22.20;34.80;;;;;;5049893;28;20514;-50
2021/04/25 02:48:09;;;;;;;1.02;0.68;;;22.10;34.70;;;;;;5050174;28;20029;-52
2021/04/25 02:50:38;;;;;;;2.17;0.70;;;22.20;34.80;;;;;;5049850;28;20052;-47
2021/04/25 02:53:04;;;;;;;1.88;0.50;;;22.20;34.80;;;;;;5049696;28;20094;-49
2021/04/25 02:55:30;;;;;;;1.33;0.40;;;22.20;34.80;;;;;;5050185;28;20108;-51
2021/04/25 02:57:59;;;;;;;0.95;0.30;;;22.10;34.80;;;;;;5050188;28;20422;-51
2021/04/25 03:00:28;;;;;;;0.98;0.35;;;22.10;34.80;;;;;;5049708;28;20025;-51
2021/04/25 03:02:54;;;;;;;1.75;0.65;;;22.10;34.80;;;;;;5049495;28;20029;-47
2021/04/25 03:05:20;;;;;;;2.60;0.70;;;22.10;34.80;;;;;;5039090;28;20029;-48
2021/04/25 03:07:46;;;;;;;0.85;0.52;;;22.10;34.80;;;;;;5050142;28;20029;-50
2021/04/25 03:10:14;;;;;;;2.10;0.80;;;22.10;34.80;;;;;;5042783;28;20103;-49
2021/04/25 03:12:40;;;;;;;1.55;0.50;;;22.10;34.80;;;;;;5044617;28;20553;-50
2021/04/25 03:15:08;;;;;;;1.52;0.50;;;22.10;34.80;;;;;;5043635;28;20051;-50
2021/04/25 03:17:34;;;;;;;1.25;0.63;;;22.10;34.80;;;;;;5043933;28;20506;-50
2021/04/25 03:20:00;;;;;;;2.97;0.73;;;22.10;34.80;;;;;;5047251;28;20029;-49
2021/04/25 03:22:25;;;;;;;0.77;0.55;;;22.10;34.90;;;;;;5047034;28;20084;-47
2021/04/25 03:24:51;;;;;;;2.05;0.40;;;22.10;34.80;;;;;;5049158;28;20108;-47
2021/04/25 03:27:16;;;;;;;1.17;0.60;;;22.10;34.80;;;;;;5046242;28;20058;-50
2021/04/25 03:29:42;;;;;;;1.70;0.80;;;22.10;34.80;;;;;;5041580;28;20106;-49
2021/04/25 03:32:08;;;;;;;1.65;0.70;;;22.10;34.80;;;;;;5048829;28;20500;-49
2021/04/25 03:34:33;;;;;;;2.63;0.90;;;22.10;34.80;;;;;;5038765;28;20060;-50
2021/04/25 03:36:59;;;;;;;1.33;0.70;;;22.00;34.80;;;;;;5045838;28;20017;-51
2021/04/25 03:39:24;;;;;;;1.42;0.60;;;22.10;34.80;;;;;;5046276;28;20025;-50
2021/04/25 03:41:50;;;;;;;1.08;0.50;;;22.00;34.80;;;;;;5049096;28;20108;-49
2021/04/25 03:44:16;;;;;;;0.93;0.55;;;22.00;35.20;;;;;;5044878;28;20032;-49
2021/04/25 03:46:42;;;;;;;1.38;0.63;;;22.00;34.80;;;;;;5048891;28;20174;-50
2021/04/25 03:49:08;;;;;;;1.77;0.82;;;22.00;34.80;;;;;;5046881;28;20031;-51
2021/04/25 03:51:34;;;;;;;1.55;0.75;;;22.00;34.80;;;;;;5049455;28;20421;-50
2021/04/25 03:53:59;;;;;;;1.52;0.95;;;22.00;34.80;;;;;;5047457;28;20506;-49
2021/04/25 03:56:25;;;;;;;1.58;0.82;;;22.00;34.80;;;;;;5045214;28;20490;-48
2021/04/25 03:58:50;;;;;;;1.52;0.63;;;22.00;34.80;;;;;;5045974;28;20482;-50
2021/04/25 04:01:16;;;;;;;0.93;0.50;;;22.00;34.70;;;;;;5043693;28;20398;-49
2021/04/25 04:03:42;;;;;;;1.55;0.60;;;22.00;34.80;;;;;;5049029;28;20021;-50
2021/04/25 04:06:07;;;;;;;2.38;0.90;;;22.00;34.70;;;;;;5035119;28;20025;-49
2021/04/25 04:08:33;;;;;;;1.00;0.52;;;22.00;34.80;;;;;;5045067;28;20508;-51
2021/04/25 04:10:59;;;;;;;1.17;0.60;;;22.00;34.70;;;;;;5048680;28;20024;-48
2021/04/25 04:13:24;;;;;;;1.92;0.82;;;22.00;34.70;;;;;;5040072;28;20150;-49
2021/04/25 04:15:50;;;;;;;1.35;0.50;;;22.00;34.70;;;;;;5041518;28;20025;-48
2021/04/25 04:18:16;;;;;;;1.70;0.50;;;21.90;34.70;;;;;;5045780;28;20033;-51
2021/04/25 04:20:41;;;;;;;1.05;0.40;;;22.00;34.80;;;;;;5045193;28;20044;-48
2021/04/25 04:23:07;;;;;;;1.65;0.65;;;22.00;34.70;;;;;;5048452;28;20029;-48
2021/04/25 04:25:32;;;;;;;1.95;0.73;;;21.90;34.70;;;;;;5032701;28;20026;-47
2021/04/25 04:27:58;;;;;;;0.98;0.63;;;21.90;34.70;;;;;;5038325;28;20494;-51
2021/04/25 04:30:24;;;;;;;1.40;0.57;;;21.90;34.70;;;;;;5040640;28;20501;-48
2021/04/25 04:32:49;;;;;;;1.50;0.68;;;21.90;34.70;;;;;;5048582;28;20040;-48
2021/04/25 04:35:15;;;;;;;1.52;0.73;;;21.90;34.70;;;;;;5037336;28;20044;-51
2021/04/25 04:37:40;;;;;;;1.65;0.63;;;21.90;34.70;;;;;;5039750;28;20099;-49
2021/04/25 04:40:07;;;;;;;2.05;0.60;;;21.90;34.70;;;;;;5047548;28;20036;-48
2021/04/25 04:42:33;;;;;;;0.88;0.47;;;21.90;34.70;;;;;;5045392;28;20032;-50
2021/04/25 04:44:58;;;;;;;2.60;0.70;;;21.90;34.70;;;;;;5039916;28;20013;-49
2021/04/25 04:47:24;;;;;;;1.20;0.70;;;21.90;34.70;;;;;;5039238;28;20032;-48
2021/04/25 04:49:49;;;;;;;1.10;0.50;;;21.90;34.70;;;;;;5041243;28;20029;-50
2021/04/25 04:52:15;;;;;;;1.75;0.60;;;21.90;34.70;;;;;;5044496;28;20039;-48
2021/04/25 04:54:41;;;;;;;1.38;0.68;;;21.90;34.70;;;;;;5048829;28;20501;-48
2021/04/25 04:57:07;;;;;;;0.95;0.77;;;21.90;34.70;;;;;;5038791;28;20057;-50
2021/04/25 04:59:32;;;;;;;1.10;0.45;;;21.90;34.70;;;;;;5048366;28;20071;-49
2021/04/25 05:01:58;;;;;;;1.65;0.65;;;21.90;34.70;;;;;;5038786;28;20033;-47
2021/04/25 05:04:23;;;;;;;1.50;0.70;;;21.90;34.70;;;;;;5048797;28;20078;-49
2021/04/25 05:06:49;;;;;;;2.25;0.88;;;21.90;34.70;;;;;;5035096;28;20116;-50
2021/04/25 05:09:15;;;;;;;1.23;0.85;;;21.90;34.70;;;;;;5048461;28;20051;-49
2021/04/25 05:11:40;;;;;;;1.10;0.57;;;21.90;34.70;;;;;;5047378;28;20045;-48
2021/04/25 05:14:06;;;;;;;0.90;0.55;;;21.90;34.70;;;;;;5045478;28;20029;-49
2021/04/25 05:16:31;;;;;;;1.02;0.55;;;21.90;34.70;;;;;;5046764;28;20087;-49
2021/04/25 05:18:57;;;;;;;1.35;0.45;;;21.80;34.70;;;;;;5047600;28;20053;-49
2021/04/25 05:21:23;;;;;;;3.25;0.60;;;21.90;34.70;;;;;;5049037;28;20033;-51
2021/04/25 05:23:48;;;;;;;1.45;0.70;;;21.90;34.70;;;;;;5048831;28;20476;-51
2021/04/25 05:26:14;;;;;;;1.20;0.40;;;21.90;34.70;;;;;;5041588;28;20057;-48
2021/04/25 05:28:39;;;;;;;1.52;0.50;;;21.80;34.60;;;;;;5045466;28;20071;-49
2021/04/25 05:31:05;;;;;;;0.85;0.28;;;21.90;34.70;;;;;;5047295;28;20025;-47
2021/04/25 05:33:30;;;;;;;2.92;0.68;;;21.90;34.70;;;;;;5048967;28;20029;-49
2021/04/25 05:35:56;;;;;;;1.48;0.45;;;21.80;34.60;;;;;;5042704;28;20419;-49
2021/04/25 05:38:22;;;;;;;1.52;0.55;;;21.80;34.60;;;;;;5048682;28;20025;-49
2021/04/25 05:40:48;;;;;;;2.03;0.60;;;21.80;34.60;;;;;;5052439;28;20039;-50
2021/04/25 05:43:14;;;;;;;2.33;0.52;;;21.80;34.60;;;;;;5051069;28;20040;-49
2021/04/25 05:45:40;;;;;;;1.30;0.57;;;21.80;34.60;;;;;;5053840;28;20090;-50
2021/04/25 05:48:05;;;;;;;1.67;0.70;;;21.80;34.60;;;;;;5054021;28;20108;-50
2021/04/25 05:50:31;;;;;;;1.10;0.70;;;21.80;34.50;;;;;;5052126;28;20528;-49
2021/04/25 05:52:57;;;;;;;0.85;0.45;;;21.80;34.60;;;;;;5052131;28;20025;-49
2021/04/25 05:55:24;;;;;;;1.00;0.40;;;21.80;34.50;;;;;;5049653;28;20060;-49
2021/04/25 05:57:50;;;;;;;1.40;0.73;;;21.80;34.50;;;;;;5039361;28;20033;-48
2021/04/25 06:00:21;;;;;;;2.17;0.60;;;21.80;34.60;;;;;;5046621;28;20090;-51
2021/04/25 06:02:47;;;;;;;1.38;0.30;;;21.80;34.50;;;;;;5051840;28;20021;-49
2021/04/25 06:05:13;;;;;;;1.00;0.63;;;21.80;34.50;;;;;;5049783;28;20028;-47
2021/04/25 06:07:39;;;;;;;1.00;0.50;;;21.80;34.40;;;;;;5044960;28;20033;-48
2021/04/25 06:10:06;;;;;;;1.55;0.70;;;21.80;34.30;;;;;;5050608;28;20024;-47
2021/04/25 06:12:33;;;;;;;1.77;0.73;;;21.80;34.30;;;;;;5048401;28;20037;-46
2021/04/25 06:14:58;;;;;;;2.15;0.40;;;21.70;34.20;;;;;;5043147;28;20537;-47
2021/04/25 06:17:24;;;;;;;1.20;0.55;;;21.70;34.30;;;;;;5050473;28;20057;-50
2021/04/25 06:19:50;;;;;;;1.20;0.70;;;21.70;34.20;;;;;;5032357;28;20108;-49
2021/04/25 06:22:15;;;;;;;3.08;0.68;;;21.70;34.30;;;;;;5046792;28;20055;-50
2021/04/25 06:24:42;;;;;;;1.55;0.47;;;21.70;34.30;;;;;;5050212;28;20024;-48
2021/04/25 06:27:08;;;;;;;1.80;0.70;;;21.70;34.30;;;;;;5049953;28;20398;-49
2021/04/25 06:29:34;;;;;;;1.30;0.60;;;21.70;34.20;;;;;;5045780;28;20025;-50
2021/04/25 06:32:00;;;;;;;2.00;0.77;;;21.70;34.10;;;;;;5049975;28;20032;-48
2021/04/25 06:34:25;;;;;;;2.35;0.43;;;21.70;34.10;;;;;;5050273;28;20093;-49
2021/04/25 06:36:51;;;;;;;1.75;0.45;;;21.70;34.10;;;;;;5049335;28;20096;-47
2021/04/25 06:39:17;;;;;;;2.90;0.75;;;21.70;33.90;;;;;;5050528;28;20029;-51
2021/04/25 06:41:43;;;;;;;1.25;0.70;;;21.70;33.80;;;;;;5049041;28;20033;-50
2021/04/25 06:44:08;;;;;;;1.13;0.63;;;21.70;33.80;;;;;;5046250;28;20047;-49
2021/04/25 06:46:34;;;;;;;2.30;1.10;;;21.70;33.80;;;;;;5046659;28;20025;-49
2021/04/25 06:49:00;;;;;;;2.13;0.60;;;21.70;33.60;;;;;;5050251;28;20074;-49
2021/04/25 06:51:26;;;;;;;2.05;0.60;;;21.70;33.70;;;;;;5047107;28;20021;-50
2021/04/25 06:53:51;;;;;;;1.48;0.40;;;21.70;33.60;;;;;;5051145;28;20526;-49
2021/04/25 06:56:17;;;;;;;1.10;0.50;;;21.70;33.60;;;;;;5049227;28;20041;-51
2021/04/25 06:58:43;;;;;;;1.50;0.60;;;21.70;33.70;;;;;;5045979;28;20039;-49
2021/04/25 07:01:10;;;;;;;3.40;0.60;;;21.70;33.60;;;;;;5046679;28;20124;-48
2021/04/25 07:03:36;;;;;;;2.72;0.80;;;21.70;33.60;;;;;;5041859;28;20020;-49
2021/04/25 07:06:02;;;;;;;1.33;0.38;;;21.70;33.70;;;;;;5042665;28;20029;-48
2021/04/25 07:08:27;;;;;;;1.20;0.50;;;21.70;33.60;;;;;;5049522;28;20029;-49
2021/04/25 07:10:53;;;;;;;2.72;0.77;;;21.70;34.00;;;;;;5044435;28;20389;-50
2021/04/25 07:13:19;;;;;;;1.88;0.50;;;21.70;33.50;;;;;;5048937;28;20097;-47
2021/04/25 07:15:45;;;;;;;1.70;0.35;;;21.70;33.40;;;;;;5041220;28;20029;-48
2021/04/25 07:18:11;;;;;;;1.20;0.28;;;21.70;33.80;;;;;;5038852;28;20029;-49
2021/04/25 07:20:37;;;;;;;2.05;0.50;;;21.70;33.60;;;;;;5048832;28;20035;-48
2021/04/25 07:23:03;;;;;;;1.48;0.30;;;21.70;33.80;;;;;;5039112;28;20484;-48
2021/04/25 07:25:28;;;;;;;1.30;0.52;;;21.70;33.40;;;;;;5035688;28;20037;-50
2021/04/25 07:27:54;;;;;;;1.13;0.38;;;21.70;33.40;;;;;;5049868;28;20032;-50
2021/04/25 07:30:20;;;;;;;2.05;0.60;;;21.70;33.60;;;;;;5049284;28;20122;-50
2021/04/25 07:32:46;;;;;;;1.55;0.77;;;21.70;33.50;;;;;;5037612;28;20159;-49
2021/04/25 07:35:12;;;;;;;0.90;0.30;;;21.70;33.60;;;;;;5049399;28;20037;-49
2021/04/25 07:37:37;;;;;;;2.35;0.68;;;21.70;33.50;;;;;;5047518;28;20055;-50
2021/04/25 07:40:05;;;;;;;2.65;0.60;;;21.70;33.50;;;;;;5048486;28;20025;-49
2021/04/25 07:42:31;;;;;;;3.63;0.73;;;21.70;33.80;;;;;;5049050;28;20559;-50
2021/04/25 07:44:56;;;;;;;1.67;0.77;;;21.70;33.60;;;;;;5044747;28;20112;-50
2021/04/25 07:47:22;;;;;;;0.95;0.63;;;21.70;33.80;;;;;;5049549;28;20029;-49
2021/04/25 07:49:48;;;;;;;3.08;0.82;;;21.70;33.60;;;;;;5048756;28;20033;-48
2021/04/25 07:52:13;;;;;;;1.13;0.60;;;21.70;33.80;;;;;;5049806;28;20029;-50
2021/04/25 07:54:39;;;;;;;1.15;0.68;;;21.80;33.80;;;;;;5048077;28;20032;-49
2021/04/25 07:57:05;;;;;;;1.05;0.50;;;21.80;33.60;;;;;;5049123;28;20112;-49
2021/04/25 07:59:31;;;;;;;2.30;0.65;;;21.70;33.90;;;;;;5048996;28;20028;-49
2021/04/25 08:01:56;;;;;;;1.33;0.47;;;21.80;34.10;;;;;;5049007;28;20040;-48
2021/04/25 08:04:22;;;;;;;1.05;0.45;;;21.80;33.90;;;;;;5048221;28;20025;-51
2021/04/25 08:06:48;;;;;;;1.30;0.60;;;21.80;34.10;;;;;;5046219;28;20100;-48
2021/04/25 08:09:13;;;;;;;1.60;0.55;;;21.80;34.20;;;;;;5047496;28;20052;-47
2021/04/25 08:11:39;;;;;;;1.50;0.55;;;21.80;34.00;;;;;;5045215;28;20029;-50
2021/04/25 08:14:05;;;;;;;1.30;0.43;;;21.80;33.70;;;;;;5045716;28;20037;-50
2021/04/25 08:16:30;;;;;;;1.40;0.40;;;21.80;34.00;;;;;;5048830;28;20029;-51
2021/04/25 08:18:56;;;;;;;2.25;0.75;;;21.80;33.90;;;;;;5048672;28;20032;-49
2021/04/25 08:21:25;;;;;;;1.38;0.50;;;21.80;34.10;;;;;;5048883;28;20025;-48
2021/04/25 08:23:50;;;;;;;1.75;0.60;;;21.80;34.10;;;;;;5049287;28;20031;-49
2021/04/25 08:26:16;;;;;;;0.82;0.43;;;21.80;34.10;;;;;;5048109;28;20104;-49
2021/04/25 08:28:41;;;;;;;1.58;0.50;;;21.80;34.10;;;;;;5047940;28;20113;-50
2021/04/25 08:31:07;;;;;;;0.77;0.40;;;21.80;34.10;;;;;;5048759;28;20029;-49
2021/04/25 08:33:32;;;;;;;1.60;0.60;;;21.80;34.10;;;;;;5048888;28;20029;-50
2021/04/25 08:35:58;;;;;;;3.10;0.60;;;21.80;34.10;;;;;;5047764;28;20024;-50
2021/04/25 08:38:24;;;;;;;1.63;0.50;;;21.80;34.10;;;;;;5046268;28;20394;-50
2021/04/25 08:40:49;;;;;;;0.75;0.50;;;21.80;34.10;;;;;;5048534;28;20064;-48
2021/04/25 08:43:15;;;;;;;3.25;0.75;;;21.90;34.10;;;;;;5050627;28;20025;-50
2021/04/25 08:45:46;;;;;;;1.25;0.75;;;21.90;34.00;;;;;;5050655;28;20020;-50
2021/04/25 08:48:13;;;;;;;1.95;0.40;;;21.90;33.90;;;;;;5048362;28;20025;-52
2021/04/25 08:50:40;;;;;;;1.52;0.60;;;21.90;33.90;;;;;;5049748;28;20032;-50
2021/04/25 08:53:06;;;;;;;1.05;0.57;;;21.90;33.90;;;;;;5048204;28;20044;-50
2021/04/25 08:55:31;;;;;;;1.67;0.60;;;21.90;33.90;;;;;;5048947;28;20033;-47
2021/04/25 08:57:58;;;;;;;1.70;0.52;;;22.00;33.90;;;;;;5047997;28;20109;-50
2021/04/25 09:00:24;;;;;;;0.73;0.43;;;22.00;33.90;;;;;;5047583;28;20044;-49
2021/04/25 09:02:53;;;;;;;1.65;0.40;;;22.00;33.90;;;;;;5048650;28;20048;-47
2021/04/25 09:05:19;;;;;;;3.63;0.85;;;22.00;33.80;;;;;;5048587;28;20145;-48
2021/04/25 09:07:55;;;;;;;1.33;0.52;;;22.00;33.80;;;;;;5048036;28;20033;-48
2021/04/25 09:10:29;;;;;;;1.20;0.60;;;22.10;33.90;;;;;;5047608;28;20116;-49
2021/04/25 09:12:55;;;;;;;1.15;0.50;;;22.10;33.90;;;;;;5051277;28;20534;-52
2021/04/25 09:15:20;;;;;;;1.92;0.75;;;22.10;33.90;;;;;;5051868;28;20037;-49
2021/04/25 09:17:55;;;;;;;1.38;0.52;;;22.10;33.90;;;;;;5052217;28;20032;-50
2021/04/25 09:20:30;;;;;;;1.20;0.50;;;22.10;33.90;;;;;;5050454;28;20116;-50
2021/04/25 09:22:56;;;;;;;2.15;0.45;;;22.10;33.90;;;;;;5052705;28;20032;-50
2021/04/25 09:25:22;;;;;;;0.65;0.35;;;22.10;33.90;;;;;;5051248;28;20627;-48
2021/04/25 09:27:49;;;;;;;1.33;0.60;;;22.20;33.90;;;;;;5052418;28;20094;-50
2021/04/25 09:30:23;;;;;;;0.90;0.40;;;22.20;33.90;;;;;;5050627;28;20033;-49
2021/04/25 09:32:59;;;;;;;2.97;0.60;;;22.20;33.90;;;;;;5052147;28;20029;-50
2021/04/25 09:35:25;;;;;;;0.85;0.38;;;22.10;33.90;;;;;;5050228;28;20021;-48
2021/04/25 09:37:51;;;;;;;0.63;0.32;;;22.10;33.90;;;;;;5039492;28;20428;-50
2021/04/25 09:40:23;;;;;;;1.10;0.40;;;22.10;33.90;;;;;;5047128;28;20025;-47
2021/04/25 09:43:07;;;;;;;1.50;0.38;;;22.10;33.90;;;;;;5047210;28;20032;-47
2021/04/25 09:45:34;;;;;;;0.80;0.40;;;22.20;33.90;;;;;;5050310;28;20383;-50
2021/04/25 09:48:01;;;;;;;0.73;0.30;;;22.10;33.90;;;;;;5033926;28;20375;-48
2021/04/25 09:50:30;;;;;;;1.63;0.40;;;22.20;33.90;;;;;;5047825;28;20494;-50
2021/04/25 09:52:56;;;;;;;1.98;0.40;;;22.20;33.90;;;;;;5046709;28;20037;-49
2021/04/25 09:55:28;;;;;;;1.20;0.25;;;22.10;33.90;;;;;;5048901;28;20116;-50
2021/04/25 09:58:07;;;;;;;1.00;0.40;;;22.10;33.90;;;;;;5051508;28;20060;-50
2021/04/25 10:00:39;;;;;;;1.05;0.40;;;22.10;33.90;;;;;;5036952;28;20068;-51
2021/04/25 10:03:09;;;;;;;1.27;0.40;;;22.10;33.90;;;;;;5032966;28;20374;-50
2021/04/25 10:05:54;;;;;;;1.60;0.35;;;22.20;34.00;;;;;;5051159;28;20024;-49
2021/04/25 10:08:36;;;;;;;0.85;0.38;;;22.20;34.00;;;;;;5042416;28;20090;-49
2021/04/25 10:11:03;;;;;;;;;;;22.10;34.00;;;;;;5043515;28;20032;-49
2021/04/25 10:13:30;;;;;;;1.60;0.55;;;22.20;34.00;;;;;;5042024;28;19915;-51
2021/04/25 10:15:56;;;;;;;0.90;0.38;;;22.20;34.00;;;;;;5052238;28;20045;-48
2021/04/25 10:18:22;;;;;;;0.73;0.30;;;22.30;34.00;;;;;;5049878;28;20025;-50
2021/04/25 10:20:56;;;;;;;1.45;0.47;;;22.30;34.50;;;;;;5050670;28;20032;-48
2021/04/25 10:23:22;;;;;;;0.73;0.30;;;22.30;33.90;;;;;;5041411;28;20452;-49
2021/04/25 10:25:49;;;;;;;1.52;0.60;;;22.30;33.90;;;;;;5051618;28;20026;-50
2021/04/25 10:28:31;;;;;;;1.85;0.45;;;22.30;33.90;;;;;;5036733;28;20116;-49
2021/04/25 10:31:01;;;;;;;2.33;0.47;;;22.40;34.00;;;;;;5051555;28;20506;-52
2021/04/25 10:34:02;;;;;;;2.67;0.55;;;22.40;33.90;;;;;;5056938;28;20040;-50
2021/04/25 10:36:52;;;;;;;1.75;0.70;;;22.40;33.90;;;;;;5050849;28;20029;-50
2021/04/25 10:39:52;;;;;;;2.75;0.43;;;22.40;33.90;;;;;;5048943;28;20060;-51
2021/04/25 10:42:17;;;;;;;1.42;0.50;;;22.40;33.90;;;;;;5036927;28;20064;-48
2021/04/25 10:44:58;;;;;;;2.13;0.35;;;22.40;33.90;;;;;;5050850;28;20061;-50
2021/04/25 10:47:26;;;;;;;1.15;0.40;;;22.40;33.90;;;;;;5048363;28;20025;-51
2021/04/25 10:49:54;;;;;;;0.95;0.40;;;22.40;33.90;;;;;;5050928;28;20036;-48
2021/04/25 10:52:31;;;;;;;1.45;0.45;;;22.40;33.90;;;;;;5050038;28;20041;-49
2021/04/25 10:55:11;;;;;;;2.25;0.57;;;22.40;34.00;;;;;;5039383;28;20029;-51
2021/04/25 10:58:02;;;;;;;1.75;0.68;;;22.40;33.90;;;;;;5042209;28;20496;-50
2021/04/25 11:00:41;;;;;;;1.58;0.40;;;22.50;33.90;;;;;;5047428;28;20026;-50
2021/04/25 11:03:12;;;;;;;2.72;0.40;;;22.50;33.90;;;;;;5053396;28;20052;-51
2021/04/25 11:05:41;;;;;;;1.77;0.50;;;22.50;33.90;;;;;;5052312;28;20013;-50
2021/04/25 11:08:12;;;;;;;1.15;0.30;;;22.50;33.90;;;;;;5050495;28;20025;-46
2021/04/25 11:10:57;;;;;;;1.50;0.63;;;22.50;33.90;;;;;;5050692;28;20044;-49
2021/04/25 11:13:43;;;;;;;2.15;0.43;;;22.50;33.90;;;;;;5043673;28;20665;-49
2021/04/25 11:16:19;;;;;;;0.95;0.30;;;22.50;33.90;;;;;;5047472;28;20032;-48
2021/04/25 11:18:58;;;;;;;1.50;0.50;;;22.50;33.90;;;;;;5049277;28;20027;-48
2021/04/25 11:21:31;;;;;;;1.35;0.30;;;22.50;33.90;;;;;;5048538;28;20700;-49
2021/04/25 11:23:58;;;;;;;1.38;0.57;;;22.60;33.90;;;;;;5053476;28;20390;-52
2021/04/25 11:26:36;;;;;;;1.42;0.43;;;22.60;33.90;;;;;;5041571;28;20033;-51
2021/04/25 11:29:02;;;;;;;1.20;0.30;;;22.60;33.90;;;;;;5046765;28;20028;-48
2021/04/25 11:31:43;;;;;;;3.10;0.60;;;22.60;33.90;;;;;;5041520;28;20034;-49
2021/04/25 11:34:38;;;;;;;3.03;0.52;;;22.60;33.90;;;;;;5040754;28;20090;-53
2021/04/25 11:37:19;;;;;;;1.98;0.50;;;22.60;33.90;;;;;;5028293;28;20516;-49
2021/04/25 11:39:53;;;;;;;1.00;0.28;;;22.60;33.90;;;;;;5049401;28;20025;-49
2021/04/25 11:42:29;;;;;;;5.68;0.73;;;22.60;33.90;;;;;;5046871;28;20119;-48
2021/04/25 11:44:58;;;;;;;1.23;0.65;;;22.70;34.00;;;;;;5047440;28;20032;-49
2021/04/25 11:47:24;;;;;;;1.05;0.32;;;22.70;34.00;;;;;;5042647;28;20024;-50
2021/04/25 11:49:52;;;;;;;3.45;0.57;;;22.70;34.00;;;;;;5044885;28;20112;-51
2021/04/25 11:52:31;;;;;;;0.68;0.35;;;22.70;34.00;;;;;;5046293;28;20033;-49
2021/04/25 11:55:17;;;;;;;2.20;0.50;;;22.70;33.90;;;;;;5047103;28;20052;-50
2021/04/25 11:57:45;;;;;;;3.38;0.50;;;22.70;33.90;;;;;;5046727;28;20021;-49
2021/04/25 12:00:24;;;;;;;5.95;0.73;;;22.70;33.90;;;;;;5049054;28;20492;-52
2021/04/25 12:03:02;;;;;;;1.25;0.60;;;22.70;33.90;;;;;;5047931;28;20025;-49
2021/04/25 12:05:29;;;;;;;1.20;0.43;;;22.70;33.90;;;;;;5046989;28;20381;-50
2021/04/25 12:07:57;;;;;;;1.85;0.70;;;22.80;33.90;;;;;;5047831;28;20029;-49
2021/04/25 12:10:44;;;;;;;2.53;0.40;;;22.80;33.90;;;;;;5045749;28;20628;-51
2021/04/25 12:13:25;;;;;;;2.90;0.65;;;22.80;33.90;;;;;;5041354;28;20390;-52
2021/04/25 12:16:02;;;;;;;1.53;0.50;;;22.80;33.90;;;;;;5047315;28;20386;-48
2021/04/25 12:18:38;;;;;;;1.05;0.40;;;22.80;33.90;;;;;;5048929;28;20104;-48
2021/04/25 12:21:23;;;;;;;3.03;0.45;;;22.80;33.80;;;;;;5048512;28;20029;-50
2021/04/25 12:23:51;;;;;;;1.38;0.50;;;22.80;33.90;;;;;;5048516;28;20390;-51
2021/04/25 12:26:20;;;;;;;0.85;0.40;;;22.80;33.90;;;;;;5047456;28;20052;-49
2021/04/25 12:28:50;;;;;;;4.22;0.50;;;22.80;33.90;;;;;;5044821;28;20026;-49
2021/04/25 12:31:21;;;;;;;1.10;0.50;;;22.80;33.90;;;;;;5031631;28;20773;-49
2021/04/25 12:33:54;;;;;;;2.25;0.45;;;22.90;34.00;;;;;;5049627;28;20025;-52
2021/04/25 12:36:21;;;;;;;2.83;0.52;;;22.90;34.00;;;;;;5047288;28;20608;-50
2021/04/25 12:39:04;;;;;;;1.92;0.30;;;22.90;34.00;;;;;;5045602;28;20038;-50
2021/04/25 12:41:40;;;;;;;2.63;0.45;;;22.90;34.00;;;;;;5049319;28;20051;-50
2021/04/25 12:44:05;;;;;;;2.42;0.30;;;22.90;34.10;;;;;;5044687;28;20367;-52
2021/04/25 12:46:31;;;;;;;0.70;0.20;;;22.90;34.10;;;;;;5049408;28;20044;-47
2021/04/25 12:48:58;;;;;;;0.93;0.20;;;22.90;34.10;;;;;;5037315;28;20028;-49
2021/04/25 12:51:43;;;;;;;0.93;0.20;;;22.90;34.10;;;;;;5043368;28;20034;-49
2021/04/25 12:54:11;;;;;;;0.70;0.30;;;22.90;34.10;;;;;;5042657;28;20063;-48